Time;durP1;ratioP1;P1;durP2;ratioP2;P2;SDS_P1;SDS_P2;PMS_P1;PMS_P2;Temp;Humidity;BMP_temperature;BMP_pressure;BME280_temperature;BME280_humidity;BME280_pressure;Samples;Min_cycle;Max_cycle;Signal;HPM_P1;HPM_P2
2021/01/20 00:01:29;;;;;;;115.00;46.37;;;;;;;-13.54;66.06;99359.52;1731955;83;21062;-54
2021/01/20 00:03:58;;;;;;;114.97;47.25;;;;;;;-13.62;65.95;99357.80;1710102;83;21063;-54
2021/01/20 00:06:25;;;;;;;121.67;46.65;;;;;;;-13.66;66.16;99366.84;1709131;82;21051;-53
2021/01/20 00:08:53;;;;;;;105.55;44.10;;;;;;;-13.66;66.12;99360.64;1740407;82;21533;-54
2021/01/20 00:11:21;;;;;;;105.05;46.30;;;;;;;-13.63;66.06;99363.48;1740345;82;21079;-54
2021/01/20 00:13:48;;;;;;;122.07;50.73;;;;;;;-13.62;66.09;99362.39;1740395;82;21207;-53
2021/01/20 00:16:16;;;;;;;129.68;51.48;;;;;;;-13.65;66.21;99367.03;1740281;82;21208;-53
2021/01/20 00:18:44;;;;;;;127.53;49.73;;;;;;;-13.62;66.22;99362.76;1740363;82;21026;-54
2021/01/20 00:21:12;;;;;;;123.50;47.55;;;;;;;-13.56;66.21;99361.85;1740433;82;21055;-54
2021/01/20 00:23:40;;;;;;;117.25;47.13;;;;;;;-13.51;66.08;99367.30;1743386;82;21050;-53
2021/01/20 00:26:08;;;;;;;120.60;45.50;;;;;;;-13.50;65.93;99366.59;1740550;82;21188;-54
2021/01/20 00:28:36;;;;;;;110.83;42.88;;;;;;;-13.56;65.80;99362.18;1680414;85;21482;-53
2021/01/20 00:31:03;;;;;;;102.10;43.15;;;;;;;-13.62;65.83;99366.48;1740295;82;21047;-53
2021/01/20 00:33:31;;;;;;;116.73;47.15;;;;;;;-13.67;65.97;99355.17;1742273;82;21370;-54
2021/01/20 00:35:59;;;;;;;106.52;43.68;;;;;;;-13.73;66.00;99361.58;1747230;82;21049;-53
2021/01/20 00:38:27;;;;;;;109.27;46.58;;;;;;;-13.77;66.28;99355.38;1752494;82;21028;-54
2021/01/20 00:40:55;;;;;;;110.45;45.43;;;;;;;-13.74;66.40;99360.16;1752505;82;21043;-54
2021/01/20 00:43:22;;;;;;;106.63;43.40;;;;;;;-13.68;66.51;99358.01;1752780;82;21061;-54
2021/01/20 00:45:50;;;;;;;131.47;50.50;;;;;;;-13.56;66.67;99359.37;1752490;82;21073;-54
2021/01/20 00:48:18;;;;;;;126.47;49.75;;;;;;;-13.54;66.57;99357.03;1752818;82;21217;-54
2021/01/20 00:50:46;;;;;;;116.62;48.25;;;;;;;-13.67;66.79;99357.64;1752717;82;21082;-54
2021/01/20 00:53:14;;;;;;;125.07;49.90;;;;;;;-13.82;67.31;99355.59;1752392;82;21178;-54
2021/01/20 00:55:42;;;;;;;128.35;53.17;;;;;;;-13.92;67.80;99365.20;1752756;82;21043;-54
2021/01/20 00:58:13;;;;;;;127.47;50.93;;;;;;;-13.93;68.13;99354.41;1752753;82;21189;-54
2021/01/20 01:00:41;;;;;;;116.62;45.52;;;;;;;-13.91;68.18;99360.42;1752214;82;21058;-54
2021/01/20 01:03:10;;;;;;;99.95;39.88;;;;;;;-14.09;68.54;99355.86;1758235;81;21153;-53
2021/01/20 01:05:38;;;;;;;98.05;38.35;;;;;;;-14.32;69.21;99354.19;1770738;81;21169;-54
2021/01/20 01:08:06;;;;;;;113.42;44.58;;;;;;;-14.50;69.90;99353.32;1770707;81;21184;-54
2021/01/20 01:10:36;;;;;;;82.70;34.40;;;;;;;-14.68;70.48;99341.00;1770143;81;21479;-53
2021/01/20 01:13:06;;;;;;;73.42;29.60;;;;;;;-14.75;71.03;99346.87;1769293;81;21524;-54
2021/01/20 01:15:36;;;;;;;73.28;30.05;;;;;;;-14.70;71.63;99339.61;1771090;81;21054;-54
2021/01/20 01:18:04;;;;;;;92.55;39.63;;;;;;;-14.59;72.08;99338.70;1770729;81;21168;-54
2021/01/20 01:20:35;;;;;;;106.27;42.70;;;;;;;-14.52;72.32;99339.91;1770729;81;21046;-54
2021/01/20 01:23:03;;;;;;;77.27;30.57;;;;;;;-14.48;72.58;99337.04;1770719;81;21066;-54
2021/01/20 01:25:31;;;;;;;65.08;27.45;;;;;;;-14.49;72.58;99340.24;1770697;81;21074;-54
2021/01/20 01:28:12;;;;;;;76.85;29.02;;;;;;;-14.58;72.67;99342.94;1770952;81;21614;-54
2021/01/20 01:30:41;;;;;;;75.22;32.20;;;;;;;-14.67;73.00;99342.42;1770061;81;21725;-54
2021/01/20 01:33:09;;;;;;;83.45;33.18;;;;;;;-14.75;73.27;99339.44;1770986;81;21472;-53
2021/01/20 01:35:40;;;;;;;63.68;26.62;;;;;;;-14.78;73.41;99348.09;1770854;81;21192;-53
2021/01/20 01:38:08;;;;;;;69.75;27.52;;;;;;;-14.85;73.51;99349.33;1771087;81;21195;-53
2021/01/20 01:40:41;;;;;;;81.65;30.35;;;;;;;-14.91;73.66;99339.61;1770431;81;21084;-53
2021/01/20 01:43:17;;;;;;;72.47;25.43;;;;;;;-14.94;73.75;99341.74;1746735;81;21082;-53
2021/01/20 01:45:46;;;;;;;74.95;31.80;;;;;;;-14.92;73.86;99352.71;1738237;82;21572;-52
2021/01/20 01:48:16;;;;;;;75.60;31.02;;;;;;;-14.91;74.02;99345.80;1739560;82;21189;-52
2021/01/20 01:50:49;;;;;;;79.62;33.18;;;;;;;-14.85;74.19;99337.86;1739535;82;21034;-52
2021/01/20 01:53:17;;;;;;;85.05;35.75;;;;;;;-14.83;74.17;99350.06;1739525;82;21188;-52
2021/01/20 01:55:48;;;;;;;102.32;38.20;;;;;;;-14.76;74.21;99345.08;1730358;82;21534;-52
2021/01/20 01:58:24;;;;;;;85.62;37.40;;;;;;;-14.73;74.16;99347.94;1737228;82;21236;-52
2021/01/20 02:00:55;;;;;;;93.72;38.20;;;;;;;-14.75;74.37;99345.63;1738950;82;21528;-54
2021/01/20 02:03:25;;;;;;;128.42;49.88;;;;;;;-14.76;74.37;99336.77;1725830;82;21193;-52
2021/01/20 02:05:53;;;;;;;113.88;45.15;;;;;;;-14.71;74.44;99334.47;1707319;84;21027;-53
2021/01/20 02:08:23;;;;;;;119.00;49.38;;;;;;;-14.68;74.24;99336.05;1707038;84;21063;-52
2021/01/20 02:11:04;;;;;;;86.35;36.80;;;;;;;-14.71;74.26;99336.58;1706477;84;21070;-52
2021/01/20 02:13:50;;;;;;;86.87;36.05;;;;;;;-14.75;74.36;99338.20;1704537;84;21216;-52
2021/01/20 02:16:28;;;;;;;71.67;30.88;;;;;;;-14.76;74.57;99329.34;1705957;84;21192;-52
2021/01/20 02:19:00;;;;;;;64.62;28.57;;;;;;;-14.67;74.39;99333.76;1690606;84;21493;-53
2021/01/20 02:22:06;;;;;;;59.08;27.65;;;;;;;-14.62;74.24;99330.94;1706702;84;21413;-53
2021/01/20 02:25:02;;;;;;;57.35;25.10;;;;;;;-14.61;74.16;99338.87;1631310;88;21674;-54
2021/01/20 02:27:43;;;;;;;81.78;34.73;;;;;;;-14.64;74.14;99339.78;1691486;84;21079;-53
2021/01/20 02:30:16;;;;;;;90.57;42.67;;;;;;;-14.68;74.14;99347.19;1706836;84;21145;-56
2021/01/20 02:32:51;;;;;;;120.65;52.48;;;;;;;-14.72;74.10;99352.16;1706344;84;21540;-53
2021/01/20 02:35:23;;;;;;;93.12;35.10;;;;;;;-14.77;74.38;99357.31;1706240;84;21217;-53
2021/01/20 02:37:52;;;;;;;92.62;37.48;;;;;;;-14.80;74.46;99359.08;1707255;84;21468;-54
2021/01/20 02:40:25;;;;;;;89.45;35.17;;;;;;;-14.84;74.74;99348.64;1705272;84;21217;-54
2021/01/20 02:42:56;;;;;;;104.85;40.55;;;;;;;-14.84;74.86;99351.99;1659098;84;21117;-53
2021/01/20 02:45:26;;;;;;;;;;;;;;;-14.78;74.75;99356.43;1722103;83;21609;-53
2021/01/20 02:47:57;;;;;;;84.47;36.70;;;;;;;-14.81;74.83;99357.30;1745562;82;20142;-54
2021/01/20 02:50:28;;;;;;;86.02;33.20;;;;;;;-14.82;75.05;99349.34;1727080;82;21209;-53
2021/01/20 02:53:17;;;;;;;92.72;36.60;;;;;;;-14.84;75.13;99350.76;1727599;82;21063;-54
2021/01/20 02:55:58;;;;;;;99.32;40.28;;;;;;;-14.84;75.26;99353.23;1748467;82;21161;-55
2021/01/20 02:58:36;;;;;;;97.47;38.38;;;;;;;-14.79;75.08;99353.77;1670555;84;21082;-54
2021/01/20 03:01:26;;;;;;;94.13;38.38;;;;;;;-14.83;75.12;99360.30;1752668;82;21185;-53
2021/01/20 03:03:59;;;;;;;106.93;40.50;;;;;;;-14.85;75.20;99368.81;1755446;80;21568;-54
2021/01/20 03:06:29;;;;;;;100.25;40.10;;;;;;;-14.87;75.17;99370.22;1687581;84;21509;-53
2021/01/20 03:08:58;;;;;;;99.58;37.70;;;;;;;-14.83;75.21;99369.88;1687822;84;21492;-53
2021/01/20 03:11:26;;;;;;;103.40;40.33;;;;;;;-14.80;75.11;99376.78;1687697;84;21479;-54
2021/01/20 03:13:55;;;;;;;107.47;41.08;;;;;;;-14.83;75.24;99372.68;1687618;84;21132;-53
2021/01/20 03:16:27;;;;;;;83.33;32.73;;;;;;;-14.79;75.34;99375.69;1687676;84;21081;-53
2021/01/20 03:18:56;;;;;;;98.35;38.42;;;;;;;-14.74;75.26;99370.03;1687477;84;21073;-53
2021/01/20 03:21:24;;;;;;;101.97;42.30;;;;;;;-14.73;75.19;99376.74;1706966;84;21047;-53
2021/01/20 03:23:51;;;;;;;90.90;40.08;;;;;;;-14.74;75.28;99374.98;1707093;84;21518;-53
2021/01/20 03:26:19;;;;;;;83.27;32.93;;;;;;;-14.78;75.26;99379.95;1707177;84;21096;-53
2021/01/20 03:28:46;;;;;;;79.77;31.02;;;;;;;-14.82;75.34;99378.19;1707033;84;21048;-53
2021/01/20 03:31:15;;;;;;;88.82;32.80;;;;;;;-14.90;75.59;99383.49;1707255;84;21467;-53
2021/01/20 03:33:42;;;;;;;81.87;35.23;;;;;;;-14.97;75.62;99381.89;1707145;84;21467;-53
2021/01/20 03:36:11;;;;;;;96.75;35.85;;;;;;;-15.01;75.74;99373.56;1717707;83;21041;-53
2021/01/20 03:38:39;;;;;;;88.17;33.42;;;;;;;-15.09;75.87;99368.96;1717626;83;21064;-54
2021/01/20 03:41:06;;;;;;;101.00;39.03;;;;;;;-15.13;76.02;99376.76;1717666;83;21055;-53
2021/01/20 03:43:34;;;;;;;82.22;33.90;;;;;;;-15.20;76.16;99380.45;1717617;83;21503;-53
2021/01/20 03:46:01;;;;;;;105.72;39.48;;;;;;;-15.27;76.36;99375.49;1717826;83;21063;-53
2021/01/20 03:48:29;;;;;;;82.75;34.20;;;;;;;-15.33;76.60;99375.67;1717787;83;21234;-53
2021/01/20 03:50:57;;;;;;;118.25;43.48;;;;;;;-15.36;76.82;99369.49;1717824;83;21681;-53
2021/01/20 03:53:24;;;;;;;138.72;50.25;;;;;;;-15.38;76.91;99358.16;1718049;83;21622;-53
2021/01/20 03:55:52;;;;;;;119.37;44.67;;;;;;;-15.38;76.95;99366.83;1717782;83;21067;-53
2021/01/20 03:58:21;;;;;;;118.77;41.83;;;;;;;-15.39;76.91;99356.73;1718038;83;21528;-53
2021/01/20 04:00:49;;;;;;;101.55;39.23;;;;;;;-15.40;76.89;99357.45;1718167;83;21182;-53
2021/01/20 04:03:18;;;;;;;102.62;41.37;;;;;;;-15.45;77.00;99346.14;1717795;82;21467;-53
2021/01/20 04:05:51;;;;;;;137.95;57.25;;;;;;;-15.48;77.04;99349.50;1698650;83;21234;-53
2021/01/20 04:08:18;;;;;;;147.37;55.92;;;;;;;-15.55;77.21;99351.59;1717867;83;21063;-52
2021/01/20 04:10:47;;;;;;;119.87;42.08;;;;;;;-15.61;77.34;99333.21;1718024;83;21186;-53
2021/01/20 04:13:15;;;;;;;128.85;50.08;;;;;;;-15.64;77.54;99346.82;1717746;83;21029;-53
2021/01/20 04:15:42;;;;;;;151.60;58.40;;;;;;;-15.65;77.68;99340.09;1717831;83;21064;-53
2021/01/20 04:18:10;;;;;;;128.35;51.37;;;;;;;-15.66;77.78;99338.33;1717721;83;21068;-53
2021/01/20 04:20:38;;;;;;;146.02;57.05;;;;;;;-15.70;77.88;99338.34;1718081;83;21092;-53
2021/01/20 04:23:08;;;;;;;118.05;47.67;;;;;;;-15.73;78.07;99333.04;1718000;83;21061;-53
2021/01/20 04:25:35;;;;;;;132.12;46.05;;;;;;;-15.71;78.27;99327.92;1717879;82;21239;-53
2021/01/20 04:28:04;;;;;;;142.25;54.88;;;;;;;-15.76;78.33;99332.69;1717882;83;21199;-53
2021/01/20 04:30:31;;;;;;;115.72;49.25;;;;;;;-15.79;78.70;99340.63;1687204;83;21069;-53
2021/01/20 04:32:59;;;;;;;115.62;48.15;;;;;;;-15.81;78.84;99334.97;1717772;83;21183;-53
2021/01/20 04:35:27;;;;;;;124.35;48.33;;;;;;;-15.84;78.95;99335.48;1720589;83;21204;-53
2021/01/20 04:37:55;;;;;;;90.45;37.08;;;;;;;-15.85;79.18;99338.64;1723345;83;21169;-53
2021/01/20 04:40:23;;;;;;;126.40;48.73;;;;;;;-15.87;79.28;99336.37;1723376;83;21050;-52
2021/01/20 04:42:51;;;;;;;134.93;51.20;;;;;;;-15.85;79.36;99336.53;1723373;83;21213;-53
2021/01/20 04:45:19;;;;;;;115.30;45.58;;;;;;;-15.83;79.45;99342.19;1723489;83;21189;-53
2021/01/20 04:47:49;;;;;;;129.23;48.75;;;;;;;-15.81;79.24;99343.27;1723570;83;21067;-53
2021/01/20 04:50:20;;;;;;;136.73;52.13;;;;;;;-15.81;79.33;99348.56;1723877;83;21059;-53
2021/01/20 04:52:49;;;;;;;89.20;35.17;;;;;;;-15.77;79.45;99340.78;1723430;83;21201;-53
2021/01/20 04:55:17;;;;;;;139.35;50.55;;;;;;;-15.76;79.51;99342.57;1723650;83;21188;-53
2021/01/20 04:57:45;;;;;;;127.42;44.60;;;;;;;-15.72;79.60;99349.66;1723592;83;21193;-53
2021/01/20 05:00:14;;;;;;;131.07;51.40;;;;;;;-15.71;79.49;99351.42;1723543;83;21102;-53
2021/01/20 05:02:43;;;;;;;119.97;47.60;;;;;;;-15.75;79.70;99356.69;1723583;83;21266;-53
2021/01/20 05:05:13;;;;;;;106.52;42.78;;;;;;;-15.76;79.66;99353.70;1723394;83;21114;-53
2021/01/20 05:07:40;;;;;;;130.12;49.53;;;;;;;-15.76;80.04;99347.52;1723552;83;21494;-53
2021/01/20 05:10:09;;;;;;;144.87;57.30;;;;;;;-15.74;80.05;99339.94;1723253;83;21059;-53
2021/01/20 05:12:42;;;;;;;124.92;50.23;;;;;;;-15.72;80.03;99353.70;1723561;83;21260;-53
2021/01/20 05:15:16;;;;;;;113.15;45.20;;;;;;;-15.70;79.94;99357.24;1723444;83;21070;-53
2021/01/20 05:17:59;;;;;;;136.90;55.15;;;;;;;-15.74;79.91;99357.24;1723376;83;21058;-53
2021/01/20 05:20:37;;;;;;;108.47;44.05;;;;;;;-15.81;79.96;99360.56;1723571;83;21509;-53
2021/01/20 05:23:07;;;;;;;118.97;44.23;;;;;;;-15.84;80.06;99370.45;1723626;83;21054;-53
2021/01/20 05:25:44;;;;;;;104.15;45.52;;;;;;;-15.91;80.25;99366.36;1723708;83;21477;-53
2021/01/20 05:28:27;;;;;;;125.45;51.42;;;;;;;-15.93;80.52;99366.88;1723574;83;21513;-53
2021/01/20 05:31:01;;;;;;;110.30;43.10;;;;;;;-15.93;80.65;99362.81;1723304;83;21229;-54
2021/01/20 05:33:38;;;;;;;138.15;53.00;;;;;;;-15.89;80.80;99369.91;1723442;82;21071;-55
2021/01/20 05:36:15;;;;;;;131.60;49.95;;;;;;;-15.85;80.60;99378.56;1723558;83;21462;-55
2021/01/20 05:38:45;;;;;;;128.10;50.73;;;;;;;-15.85;80.51;99373.61;1723506;83;21411;-54
2021/01/20 05:41:27;;;;;;;97.65;39.55;;;;;;;-15.82;80.43;99383.86;1723653;83;21063;-54
2021/01/20 05:44:13;;;;;;;111.70;44.23;;;;;;;-15.80;80.52;99380.87;1723234;83;21031;-54
2021/01/20 05:46:44;;;;;;;124.30;48.63;;;;;;;-15.76;80.42;99380.55;1723655;83;21715;-54
2021/01/20 05:49:27;;;;;;;104.55;37.33;;;;;;;-15.68;80.30;99382.65;1723572;83;21133;-54
2021/01/20 05:51:56;;;;;;;109.30;42.93;;;;;;;-15.66;80.12;99386.20;1723321;83;21082;-53
2021/01/20 05:54:38;;;;;;;106.45;41.98;;;;;;;-15.64;80.17;99389.74;1723305;83;21193;-54
2021/01/20 05:57:21;;;;;;;105.07;39.03;;;;;;;-15.64;80.13;99393.45;1723660;83;21086;-54
2021/01/20 05:59:51;;;;;;;103.95;41.30;;;;;;;-15.54;80.04;99402.48;1722526;83;21180;-54
2021/01/20 06:02:20;;;;;;;115.52;43.85;;;;;;;-15.52;79.77;99394.00;1717516;83;21084;-54
2021/01/20 06:04:53;;;;;;;119.42;47.17;;;;;;;-15.53;79.69;99385.70;1717608;83;21290;-53
2021/01/20 06:07:21;;;;;;;107.75;43.60;;;;;;;-15.30;79.83;99389.98;1717787;82;21065;-53
2021/01/20 06:09:49;;;;;;;98.65;36.53;;;;;;;-14.84;78.88;99387.90;1717768;83;21203;-53
2021/01/20 06:12:17;;;;;;;114.28;45.33;;;;;;;-14.38;77.52;99383.22;1717750;83;21077;-53
2021/01/20 06:14:47;;;;;;;103.15;40.70;;;;;;;-14.08;76.10;99378.72;1717703;82;21136;-53
2021/01/20 06:17:36;;;;;;;114.90;46.53;;;;;;;-13.73;74.85;99390.48;1717650;83;21150;-53
2021/01/20 06:20:07;;;;;;;114.47;42.15;;;;;;;-13.43;73.37;99392.63;1717730;82;21057;-53
2021/01/20 06:22:49;;;;;;;129.65;50.03;;;;;;;-13.04;71.84;99391.81;1717741;83;21061;-54
2021/01/20 06:25:33;;;;;;;115.72;41.23;;;;;;;-12.71;70.85;99387.12;1717692;83;21041;-53
2021/01/20 06:28:09;;;;;;;121.67;47.05;;;;;;;-12.44;69.23;99392.02;1718755;83;21152;-54
2021/01/20 06:30:40;;;;;;;94.37;38.75;;;;;;;-12.22;67.77;99394.83;1723279;83;21264;-54
2021/01/20 06:33:12;;;;;;;96.40;36.70;;;;;;;-11.95;66.86;99398.47;1723403;83;21074;-54
2021/01/20 06:35:44;;;;;;;100.75;43.13;;;;;;;-11.71;65.76;99400.97;1723433;83;21137;-53
2021/01/20 06:38:33;;;;;;;111.35;47.00;;;;;;;-11.32;64.68;99408.66;1723529;83;21095;-53
2021/01/20 06:41:07;;;;;;;107.83;45.67;;;;;;;-11.05;63.66;99404.02;1723472;83;21106;-54
2021/01/20 06:43:46;;;;;;;108.22;46.20;;;;;;;-10.87;62.67;99400.00;1723284;83;21058;-53
2021/01/20 06:46:27;;;;;;;107.12;45.67;;;;;;;-10.50;61.81;99413.68;1723269;83;21233;-54
2021/01/20 06:49:01;;;;;;;98.47;39.25;;;;;;;-10.21;60.70;99403.17;1723446;83;21054;-54
2021/01/20 06:51:30;;;;;;;92.05;41.33;;;;;;;-9.78;59.31;99406.11;1723377;83;21023;-54
2021/01/20 06:54:13;;;;;;;112.47;44.60;;;;;;;-9.61;58.33;99416.13;1723333;83;21058;-53
2021/01/20 06:56:55;;;;;;;107.47;45.88;;;;;;;-9.15;58.04;99420.89;1723297;83;21067;-54
2021/01/20 06:59:33;;;;;;;102.10;43.33;;;;;;;-9.05;56.51;99416.89;1723087;83;21181;-53
2021/01/20 07:02:10;;;;;;;96.60;40.75;;;;;;;-8.68;55.82;99412.81;1722642;83;21506;-54
2021/01/20 07:04:53;;;;;;;95.83;39.88;;;;;;;-8.56;54.50;99425.59;1723235;83;21131;-54
2021/01/20 07:07:53;;;;;;;90.05;40.50;;;;;;;-8.78;54.09;99428.58;1723258;83;21220;-54
2021/01/20 07:10:26;;;;;;;65.12;29.82;;;;;;;-9.03;54.96;99426.67;1723438;83;21192;-54
2021/01/20 07:13:16;;;;;;;101.20;43.78;;;;;;;-8.44;54.69;99427.98;1722771;83;21692;-53
2021/01/20 07:15:53;;;;;;;96.92;41.58;;;;;;;-7.91;53.37;99439.48;1723334;83;21055;-54
2021/01/20 07:18:23;;;;;;;108.80;43.33;;;;;;;-7.15;52.14;99424.44;1723263;83;21047;-54
2021/01/20 07:20:54;;;;;;;104.85;44.98;;;;;;;-7.09;49.90;99427.88;1723715;83;21114;-53
2021/01/20 07:23:21;;;;;;;94.07;42.70;;;;;;;-7.11;50.64;99431.88;1723588;83;21233;-54
2021/01/20 07:25:52;;;;;;;110.88;48.60;;;;;;;-6.67;49.58;99414.75;1723430;83;21079;-54
2021/01/20 07:28:22;;;;;;;100.62;45.52;;;;;;;-6.35;48.60;99432.17;1723590;83;21053;-54
2021/01/20 07:30:50;;;;;;;98.58;42.95;;;;;;;-6.49;48.58;99430.11;1723396;83;21055;-54
2021/01/20 07:33:22;;;;;;;104.32;46.48;;;;;;;-6.27;47.98;99433.20;1723605;83;21197;-54
2021/01/20 07:35:51;;;;;;;99.85;44.18;;;;;;;-6.44;47.69;99441.42;1723629;83;21098;-54
2021/01/20 07:38:18;;;;;;;107.43;50.40;;;;;;;-6.70;48.30;99425.80;1723631;83;21197;-54
2021/01/20 07:40:46;;;;;;;99.50;47.93;;;;;;;-6.76;48.69;99434.94;1723597;83;21209;-54
2021/01/20 07:43:24;;;;;;;83.75;40.30;;;;;;;-6.70;48.73;99438.34;1723598;83;21118;-54
2021/01/20 07:45:52;;;;;;;88.70;43.02;;;;;;;-6.49;48.68;99451.84;1720885;83;21069;-54
2021/01/20 07:48:31;;;;;;;94.97;43.20;;;;;;;-6.39;47.91;99441.44;1717816;83;21085;-54
2021/01/20 07:50:59;;;;;;;87.78;39.23;;;;;;;-5.94;48.12;99452.72;1718000;83;21488;-54
2021/01/20 07:53:27;;;;;;;77.20;39.48;;;;;;;-5.02;46.43;99462.30;1717799;83;21211;-54
2021/01/20 07:55:55;;;;;;;68.12;32.50;;;;;;;-4.88;45.29;99464.67;1717923;83;21072;-54
2021/01/20 07:58:28;;;;;;;83.03;40.75;;;;;;;-5.24;44.88;99460.11;1717824;83;21207;-58
2021/01/20 08:00:57;;;;;;;73.80;38.23;;;;;;;-5.20;45.53;99455.80;1717692;83;21135;-54
2021/01/20 08:03:36;;;;;;;82.30;38.73;;;;;;;-5.23;45.20;99458.08;1717608;83;21203;-54
2021/01/20 08:06:08;;;;;;;75.65;39.10;;;;;;;-5.38;44.88;99446.78;1731134;83;21111;-55
2021/01/20 08:09:01;;;;;;;71.33;34.18;;;;;;;-4.92;44.75;99474.38;1736369;83;21467;-54
2021/01/20 08:11:31;;;;;;;74.47;36.33;;;;;;;-5.11;44.49;99476.69;1736024;83;21139;-54
2021/01/20 08:14:02;;;;;;;69.00;32.60;;;;;;;-6.05;46.03;99473.57;1736046;83;21067;-55
2021/01/20 08:16:38;;;;;;;76.07;37.63;;;;;;;-6.17;47.00;99459.21;1736070;83;21084;-54
2021/01/20 08:19:06;;;;;;;68.85;37.17;;;;;;;-6.13;46.96;99466.62;1736348;83;21052;-54
2021/01/20 08:21:34;;;;;;;75.15;35.75;;;;;;;-6.21;47.21;99452.54;1736318;83;21063;-54
2021/01/20 08:24:07;;;;;;;69.67;35.28;;;;;;;-5.95;47.38;99474.46;1736372;83;21203;-54
2021/01/20 08:26:35;;;;;;;71.92;36.53;;;;;;;-6.38;47.15;99460.80;1736222;83;21020;-54
2021/01/20 08:29:11;;;;;;;73.72;34.70;;;;;;;-6.49;47.75;99466.52;1736135;83;21183;-54
2021/01/20 08:31:41;;;;;;;70.85;31.05;;;;;;;-6.45;47.89;99466.05;1736097;83;21040;-54
2021/01/20 08:34:20;;;;;;;71.85;35.33;;;;;;;-6.79;48.37;99471.94;1736151;83;21079;-54
2021/01/20 08:36:57;;;;;;;78.55;37.42;;;;;;;-7.33;49.68;99466.71;1736239;83;21207;-54
2021/01/20 08:39:26;;;;;;;65.67;32.50;;;;;;;-7.41;50.65;99458.52;1736193;83;21238;-54
2021/01/20 08:42:17;;;;;;;75.30;35.50;;;;;;;-6.97;50.42;99455.64;1736243;83;21040;-54
2021/01/20 08:45:13;;;;;;;71.55;34.50;;;;;;;-6.86;49.69;99468.38;1736062;83;21483;-54
2021/01/20 08:47:56;;;;;;;72.08;32.00;;;;;;;-7.46;50.57;99465.62;1736312;83;21465;-55
2021/01/20 08:50:35;;;;;;;76.72;34.35;;;;;;;-8.24;52.42;99458.57;1735456;83;21087;-53
2021/01/20 08:53:13;;;;;;;71.67;32.40;;;;;;;-8.54;53.67;99441.63;1735245;83;21108;-53
2021/01/20 08:55:54;;;;;;;81.25;35.63;;;;;;;-8.43;54.34;99457.63;1736210;83;21056;-54
2021/01/20 08:58:30;;;;;;;83.25;35.88;;;;;;;-8.77;54.95;99457.00;1739357;82;21058;-54
2021/01/20 09:01:09;;;;;;;55.60;26.33;;;;;;;-8.85;55.91;99456.62;1739775;82;21066;-54
2021/01/20 09:03:38;;;;;;;72.67;33.08;;;;;;;-8.68;55.62;99457.84;1739740;82;21058;-54
2021/01/20 09:06:16;;;;;;;75.15;34.45;;;;;;;-8.91;56.22;99461.06;1729628;82;21544;-53
2021/01/20 09:08:44;;;;;;;74.80;32.60;;;;;;;-8.84;56.53;99458.41;1723408;83;21063;-53
2021/01/20 09:11:11;;;;;;;73.30;30.32;;;;;;;-9.07;56.89;99460.86;1723338;83;21082;-53
2021/01/20 09:13:39;;;;;;;77.75;33.10;;;;;;;-9.40;58.01;99454.77;1723346;83;21039;-54
2021/01/20 09:16:07;;;;;;;82.78;33.33;;;;;;;-9.79;59.00;99455.52;1723447;83;21063;-54
2021/01/20 09:18:35;;;;;;;73.22;31.87;;;;;;;-9.95;60.04;99452.77;1723300;83;21307;-54
2021/01/20 09:21:04;;;;;;;78.47;32.88;;;;;;;-9.84;60.49;99465.95;1723377;83;21581;-53
2021/01/20 09:23:32;;;;;;;71.40;30.72;;;;;;;-9.98;60.84;99447.85;1723397;83;21229;-54
2021/01/20 09:26:00;;;;;;;63.05;28.90;;;;;;;-9.98;61.26;99456.59;1719056;83;21027;-54
2021/01/20 09:28:28;;;;;;;78.72;34.88;;;;;;;-10.11;61.62;99467.85;1717726;83;21315;-61
2021/01/20 09:30:55;;;;;;;64.37;27.20;;;;;;;-10.42;62.51;99453.98;1717944;83;21060;-54
2021/01/20 09:33:23;;;;;;;70.05;31.20;;;;;;;-10.43;63.10;99462.20;1717691;83;21215;-53
2021/01/20 09:35:51;;;;;;;69.45;31.12;;;;;;;-10.32;63.34;99446.69;1717664;83;21234;-53
2021/01/20 09:38:21;;;;;;;58.17;26.62;;;;;;;-9.95;62.85;99454.02;1722547;83;21075;-54
2021/01/20 09:40:49;;;;;;;71.28;29.98;;;;;;;-9.96;62.76;99451.02;1723293;83;21144;-53
2021/01/20 09:43:20;;;;;;;64.17;27.35;;;;;;;-9.98;62.95;99447.48;1723386;83;21213;-54
2021/01/20 09:45:47;;;;;;;69.20;28.35;;;;;;;-10.04;63.04;99443.15;1723318;83;21197;-53
2021/01/20 09:48:16;;;;;;;59.53;25.10;;;;;;;-10.10;63.47;99445.02;1723443;83;21267;-53
2021/01/20 09:50:44;;;;;;;59.42;26.60;;;;;;;-10.36;64.00;99434.63;1723264;83;21086;-53
2021/01/20 09:53:12;;;;;;;58.48;25.25;;;;;;;-10.45;64.54;99433.73;1723422;83;21062;-53
2021/01/20 09:55:40;;;;;;;54.10;23.98;;;;;;;-10.52;64.87;99434.72;1723577;83;21158;-53
2021/01/20 09:58:08;;;;;;;55.95;25.52;;;;;;;-10.56;65.14;99428.89;1723397;83;21699;-52
2021/01/20 10:00:37;;;;;;;53.10;23.90;;;;;;;-10.47;65.33;99422.71;1723422;83;21233;-53
2021/01/20 10:03:10;;;;;;;52.60;22.62;;;;;;;-10.36;65.18;99424.64;1721861;83;21068;-54
2021/01/20 10:05:39;;;;;;;58.13;26.70;;;;;;;-10.16;64.70;99428.20;1723006;83;21529;-53
2021/01/20 10:08:07;;;;;;;59.98;25.40;;;;;;;-10.33;64.98;99437.45;1735882;83;21170;-53
2021/01/20 10:10:36;;;;;;;59.30;25.25;;;;;;;-10.22;64.97;99425.12;1736237;83;21032;-53
2021/01/20 10:13:07;;;;;;;65.45;26.25;;;;;;;-10.13;64.54;99428.50;1734595;83;21076;-53
2021/01/20 10:15:38;;;;;;;59.05;25.30;;;;;;;-10.07;64.61;99425.01;1736052;83;21068;-53
2021/01/20 10:18:05;;;;;;;62.62;25.25;;;;;;;-9.95;64.57;99416.57;1736013;83;21052;-53
2021/01/20 10:20:35;;;;;;;58.68;25.43;;;;;;;-9.73;64.12;99429.91;1736221;83;21112;-53
2021/01/20 10:23:03;;;;;;;55.33;25.08;;;;;;;-9.64;63.77;99418.30;1736027;83;21075;-53
2021/01/20 10:25:33;;;;;;;62.45;27.98;;;;;;;-9.54;63.51;99433.47;1736315;83;21788;-53
2021/01/20 10:28:01;;;;;;;65.05;23.95;;;;;;;-9.45;63.30;99424.71;1736135;83;21210;-54
2021/01/20 10:30:29;;;;;;;53.60;24.72;;;;;;;-9.40;62.89;99431.91;1736148;83;21084;-53
2021/01/20 10:33:00;;;;;;;55.52;22.85;;;;;;;-9.49;62.68;99427.30;1737738;82;21204;-55
2021/01/20 10:35:27;;;;;;;53.08;24.30;;;;;;;-9.65;63.10;99424.04;1739386;82;21658;-53
2021/01/20 10:37:57;;;;;;;57.30;24.90;;;;;;;-9.74;63.29;99431.53;1756914;81;21078;-53
2021/01/20 10:40:25;;;;;;;52.80;24.47;;;;;;;-9.90;63.29;99420.40;1744895;81;21241;-53
2021/01/20 10:42:53;;;;;;;52.00;22.30;;;;;;;-9.93;63.45;99430.09;1768342;81;21030;-53
2021/01/20 10:45:21;;;;;;;50.60;23.20;;;;;;;-9.95;63.46;99439.04;1762948;80;21078;-54
2021/01/20 10:47:49;;;;;;;58.15;24.25;;;;;;;-9.95;63.81;99420.31;1760164;81;21034;-53
2021/01/20 10:50:18;;;;;;;50.67;21.70;;;;;;;-9.72;63.13;99419.18;1767342;81;21078;-53
2021/01/20 10:52:46;;;;;;;40.20;18.07;;;;;;;-9.46;62.13;99417.59;1767565;81;21764;-53
2021/01/20 10:55:13;;;;;;;56.18;24.23;;;;;;;-9.27;61.29;99435.59;1769438;81;21153;-53
2021/01/20 10:57:43;;;;;;;65.25;23.62;;;;;;;-9.04;61.56;99423.64;1769234;81;21015;-53
2021/01/20 11:00:13;;;;;;;46.88;20.10;;;;;;;-8.79;60.93;99412.20;1769971;81;21173;-53
2021/01/20 11:02:41;;;;;;;53.17;21.87;;;;;;;-8.77;60.19;99429.11;1770333;81;21200;-53
2021/01/20 11:05:11;;;;;;;48.58;23.60;;;;;;;-9.02;60.52;99420.92;1770135;81;21216;-53
2021/01/20 11:07:39;;;;;;;65.30;25.45;;;;;;;-8.97;60.76;99409.73;1736643;81;21253;-52
2021/01/20 11:10:10;;;;;;;53.05;22.67;;;;;;;-8.80;60.14;99425.08;1736388;82;21054;-53
2021/01/20 11:12:38;;;;;;;53.98;22.32;;;;;;;-8.92;60.05;99418.92;1715845;83;21198;-53
2021/01/20 11:15:08;;;;;;;68.55;24.85;;;;;;;-9.10;60.46;99410.58;1711830;83;21538;-53
2021/01/20 11:17:37;;;;;;;51.15;23.15;;;;;;;-9.23;60.76;99401.04;1728828;83;21068;-52
2021/01/20 11:20:06;;;;;;;51.08;19.50;;;;;;;-9.05;60.90;99409.77;1729046;83;21203;-52
2021/01/20 11:22:34;;;;;;;57.95;24.70;;;;;;;-8.94;60.67;99414.14;1729106;83;21539;-53
2021/01/20 11:25:02;;;;;;;58.70;24.80;;;;;;;-8.87;60.23;99416.86;1724824;83;21075;-53
2021/01/20 11:27:30;;;;;;;57.43;24.98;;;;;;;-8.78;60.17;99408.95;1699912;84;21131;-53
2021/01/20 11:29:57;;;;;;;53.95;22.80;;;;;;;-8.54;59.57;99413.73;1727206;83;21186;-53